Time;durP1;ratioP1;P1;durP2;ratioP2;P2;SDS_P1;SDS_P2;PMS_P1;PMS_P2;Temp;Humidity;BMP_temperature;BMP_pressure;BME280_temperature;BME280_humidity;BME280_pressure;Samples;Min_cycle;Max_cycle;Signal;HPM_P1;HPM_P2
2021/10/06 19:37:53;;;;;;;;;;;;;;;;;;5068423;28;20423;-44
2021/10/06 19:50:32;;;;;;;4.65;3.03;;;;;;;25.23;37.20;103127.13;5129114;27;20165;-49
2021/10/06 19:52:57;;;;;;;3.45;2.83;;;;;;;24.96;38.12;103131.56;5129600;28;20081;-48
2021/10/06 19:55:23;;;;;;;5.80;3.08;;;;;;;24.82;38.40;103122.47;5112949;28;20023;-44
2021/10/06 19:57:49;;;;;;;5.68;3.60;;;;;;;24.60;38.35;103088.16;5109251;28;20020;-43
2021/10/06 20:00:20;;;;;;;4.30;3.65;;;;;;;24.81;38.54;103139.84;5120182;28;20184;-48
2021/10/06 20:02:46;;;;;;;4.97;3.17;;;;;;;24.62;38.39;103107.88;5111410;28;20023;-46
2021/10/06 20:05:11;;;;;;;4.43;3.38;;;;;;;24.78;38.12;103129.34;5121094;28;20038;-47
2021/10/06 20:07:37;;;;;;;4.18;3.35;;;;;;;24.67;38.78;103132.66;5129372;28;20043;-50
2021/10/06 20:10:04;;;;;;;4.80;2.90;;;;;;;24.54;38.74;103113.47;5101517;28;20034;-46
2021/10/06 20:12:29;;;;;;;3.40;2.85;;;;;;;24.33;38.63;103082.53;5108158;28;20174;-47
2021/10/06 20:14:55;;;;;;;3.90;3.08;;;;;;;24.46;38.52;103102.72;5090192;28;20526;-47
2021/10/06 20:17:20;;;;;;;3.83;3.20;;;;;;;24.66;38.60;103142.69;5090611;28;20036;-46
2021/10/06 20:19:46;;;;;;;3.08;2.78;;;;;;;24.56;38.64;103130.44;5112311;28;20126;-49
2021/10/06 20:22:12;;;;;;;5.10;2.95;;;;;;;24.63;39.05;103154.00;5120902;28;20488;-50
2021/10/06 20:24:38;;;;;;;3.83;2.92;;;;;;;24.63;38.93;103153.16;5110787;28;20123;-47
2021/10/06 20:27:03;;;;;;;3.42;3.10;;;;;;;24.37;39.34;103099.31;5128744;28;20084;-49
2021/10/06 20:29:29;;;;;;;3.60;2.97;;;;;;;24.61;38.96;103145.19;5128885;28;20031;-50
2021/10/06 20:31:54;;;;;;;4.30;3.10;;;;;;;24.69;38.95;103155.09;5110415;28;20058;-49
2021/10/06 20:39:36;;;;;;;3.78;3.03;;;;;;;24.63;39.85;103161.34;5107601;28;20418;-42
2021/10/06 20:42:03;;;;;;;3.95;3.22;;;;;;;24.56;40.41;103146.78;5107874;28;20038;-42
2021/10/06 20:44:28;;;;;;;4.20;3.28;;;;;;;24.82;40.30;103163.34;5092018;28;20778;-48
2021/10/06 20:46:54;;;;;;;3.45;2.63;;;;;;;24.95;39.63;103168.06;5108018;28;20034;-43
2021/10/06 20:49:20;;;;;;;3.78;2.58;;;;;;;25.14;39.34;103166.50;5110627;28;20055;-43
2021/10/06 20:51:45;;;;;;;3.92;2.70;;;;;;;25.15;39.50;103170.91;5110514;28;20484;-47
2021/10/06 20:54:11;;;;;;;4.20;3.08;;;;;;;25.12;41.61;103177.59;5128766;28;20435;-49
2021/10/06 20:56:38;;;;;;;3.67;2.45;;;;;;;25.12;39.13;103176.75;5127854;28;20458;-42
2021/10/06 20:59:03;;;;;;;3.90;2.70;;;;;;;24.95;39.22;103174.34;5089826;28;20500;-42
2021/10/06 21:01:29;;;;;;;4.35;2.92;;;;;;;25.00;38.69;103177.34;5095344;28;20127;-47
2021/10/06 21:03:55;;;;;;;5.82;2.80;;;;;;;25.03;39.01;103167.91;5094203;28;20371;-42
2021/10/06 21:06:21;;;;;;;3.63;2.90;;;;;;;25.13;39.28;103176.56;5094194;28;20100;-48
2021/10/06 21:08:47;;;;;;;5.20;3.03;;;;;;;25.16;38.88;103187.09;5090623;28;20036;-43
2021/10/06 21:11:12;;;;;;;3.90;2.88;;;;;;;25.14;39.42;103185.56;5114228;28;20043;-46
2021/10/06 21:13:38;;;;;;;3.03;2.45;;;;;;;25.12;39.25;103180.34;5096324;28;20494;-50
2021/10/06 21:16:04;;;;;;;3.58;2.78;;;;;;;25.22;38.92;103189.00;5114231;28;20130;-43
2021/10/06 21:18:29;;;;;;;4.57;3.30;;;;;;;25.19;39.06;103191.31;5101777;28;20044;-40
2021/10/06 21:20:55;;;;;;;3.03;2.40;;;;;;;25.22;39.11;103197.19;5097716;28;20031;-44
2021/10/06 21:23:20;;;;;;;3.42;2.80;;;;;;;25.20;38.87;103191.09;5076011;28;20448;-43
2021/10/06 21:25:47;;;;;;;3.72;2.55;;;;;;;25.17;39.30;103193.38;5097092;28;20043;-49
2021/10/06 21:28:13;;;;;;;4.03;2.28;;;;;;;24.97;39.58;103194.06;5093537;28;20044;-46
2021/10/06 21:30:39;;;;;;;2.83;2.33;;;;;;;24.91;39.19;103194.03;5094431;28;20040;-48
2021/10/06 21:33:05;;;;;;;3.28;2.58;;;;;;;25.14;39.18;103200.06;5098885;28;20050;-43
2021/10/06 21:47:51;;;;;;;6.25;3.47;;;;;;;17.32;36.42;103172.66;5129312;27;20494;-64
2021/10/06 21:50:17;;;;;;;7.43;3.78;;;;;;;14.79;41.47;103203.84;5094472;28;20122;-63
2021/10/06 21:52:43;;;;;;;3.97;3.13;;;;;;;13.02;45.54;103199.53;5111563;28;20033;-67
2021/10/06 21:55:10;;;;;;;4.00;3.37;;;;;;;12.19;47.98;103201.44;5130236;28;20084;-63
2021/10/06 21:57:35;;;;;;;5.17;3.60;;;;;;;11.66;49.19;103211.50;5077686;28;20126;-62
2021/10/06 22:00:03;;;;;;;6.17;3.83;;;;;;;11.22;50.68;103212.81;5077622;28;20125;-66
2021/10/06 22:02:29;;;;;;;4.25;3.75;;;;;;;10.85;51.41;103203.84;5130218;28;20130;-63
2021/10/06 22:04:54;;;;;;;7.50;4.10;;;;;;;10.55;52.05;103202.31;5129478;28;20035;-63
2021/10/06 22:07:20;;;;;;;4.77;4.20;;;;;;;10.43;53.07;103215.59;5128601;28;20043;-64
2021/10/06 22:09:45;;;;;;;6.20;4.23;;;;;;;10.28;53.17;103205.94;5111486;28;20478;-64
2021/10/06 22:12:11;;;;;;;5.63;4.00;;;;;;;10.17;53.80;103207.50;5129600;28;20069;-67
2021/10/06 22:14:39;;;;;;;6.10;4.00;;;;;;;10.10;54.16;103214.13;5111471;28;20035;-68
2021/10/06 22:17:05;;;;;;;4.18;3.75;;;;;;;9.68;55.06;103158.38;5109149;28;20047;-64
2021/10/06 22:19:31;;;;;;;8.00;4.00;;;;;;;9.92;54.39;103212.69;5074061;28;20067;-63
2021/10/06 22:21:56;;;;;;;4.23;3.73;;;;;;;9.79;55.11;103191.31;5091107;28;20059;-62
2021/10/06 22:24:22;;;;;;;7.40;4.47;;;;;;;9.86;55.37;103227.25;5100560;28;20180;-64
2021/10/06 22:26:47;;;;;;;6.93;4.00;;;;;;;9.79;55.86;103227.72;5087527;28;20028;-63
2021/10/06 22:29:13;;;;;;;5.67;3.93;;;;;;;9.77;55.74;103226.97;5088543;28;20047;-63
2021/10/06 22:31:38;;;;;;;5.80;3.90;;;;;;;9.71;55.68;103222.03;5061164;28;20067;-63
2021/10/06 22:34:04;;;;;;;8.10;5.00;;;;;;;9.68;55.93;103230.22;5117758;28;20535;-63
2021/10/06 22:36:29;;;;;;;9.50;4.60;;;;;;;9.69;56.04;103234.59;5090250;28;20028;-64
2021/10/06 22:38:55;;;;;;;5.23;3.93;;;;;;;9.55;56.33;103216.84;5112351;28;20057;-64
2021/10/06 22:41:20;;;;;;;5.20;3.83;;;;;;;9.61;55.50;103225.28;5089518;28;20423;-65
2021/10/06 22:43:49;;;;;;;5.90;4.30;;;;;;;9.67;56.13;103229.34;5144637;28;20051;-61
2021/10/06 22:46:15;;;;;;;;;;;;;;;9.56;56.26;103224.72;5143360;28;20106;-64
2021/10/06 22:48:40;;;;;;;4.83;3.80;;;;;;;9.50;56.59;103238.38;5130830;28;19923;-63
2021/10/06 22:51:06;;;;;;;4.03;3.63;;;;;;;9.49;56.54;103243.78;5132789;28;20027;-62
2021/10/06 22:53:31;;;;;;;6.27;3.90;;;;;;;9.25;57.20;103188.53;5110095;28;20031;-64
2021/10/06 22:55:58;;;;;;;5.47;3.67;;;;;;;9.19;57.34;103190.69;5108219;28;20028;-62
2021/10/06 22:58:24;;;;;;;6.30;4.37;;;;;;;9.45;56.87;103235.16;5081244;28;20507;-67
2021/10/06 23:00:50;;;;;;;4.43;3.27;;;;;;;9.43;56.75;103231.75;5111862;28;20040;-61
2021/10/06 23:03:17;;;;;;;5.80;3.97;;;;;;;9.40;57.19;103217.78;5078284;28;20090;-65
2021/10/06 23:05:42;;;;;;;6.57;4.30;;;;;;;9.37;57.13;103225.94;5078145;28;20028;-63
2021/10/06 23:08:08;;;;;;;5.83;3.80;;;;;;;9.36;56.56;103233.06;5103425;28;20085;-63
2021/10/06 23:10:33;;;;;;;5.87;4.50;;;;;;;9.38;57.63;103233.84;5075899;28;20392;-61
2021/10/06 23:12:59;;;;;;;4.40;3.80;;;;;;;9.32;57.07;103219.13;5099404;28;20043;-64
2021/10/06 23:15:24;;;;;;;4.50;4.10;;;;;;;9.35;56.73;103228.72;5114671;28;20043;-62
2021/10/06 23:17:50;;;;;;;5.37;4.50;;;;;;;9.23;57.09;103218.81;5094195;28;20052;-64
2021/10/06 23:20:18;;;;;;;6.73;4.07;;;;;;;9.30;57.44;103225.47;5075812;28;20066;-65
2021/10/06 23:22:44;;;;;;;7.53;4.60;;;;;;;9.27;57.10;103225.69;5106346;28;20047;-64
2021/10/06 23:25:09;;;;;;;5.20;3.43;;;;;;;9.23;57.78;103216.16;5096212;28;20375;-62
2021/10/06 23:27:35;;;;;;;4.33;3.17;;;;;;;9.21;57.88;103216.25;5102143;28;20032;-64
2021/10/06 23:30:00;;;;;;;5.43;3.63;;;;;;;9.22;56.88;103217.94;5075964;28;20063;-62
2021/10/06 23:32:26;;;;;;;4.97;3.90;;;;;;;9.29;57.25;103218.47;5059586;28;20056;-67
2021/10/06 23:34:52;;;;;;;6.57;4.00;;;;;;;9.25;57.81;103203.63;5093881;28;20487;-63
2021/10/06 23:37:17;;;;;;;5.57;3.67;;;;;;;9.27;57.77;103210.56;5100983;28;20107;-64
2021/10/06 23:39:43;;;;;;;6.97;4.67;;;;;;;9.28;57.07;103214.09;5063764;28;20047;-61
2021/10/06 23:42:08;;;;;;;5.63;4.30;;;;;;;8.99;57.33;103168.88;5094022;28;20422;-62
2021/10/06 23:44:34;;;;;;;8.60;4.37;;;;;;;9.22;57.52;103206.47;5077671;28;20153;-65
2021/10/06 23:46:59;;;;;;;8.17;3.83;;;;;;;9.11;57.83;103199.16;5105963;28;20496;-65
2021/10/06 23:49:25;;;;;;;5.43;4.23;;;;;;;9.21;58.00;103215.38;5104719;28;20032;-63
2021/10/06 23:51:50;;;;;;;5.93;3.80;;;;;;;9.20;58.08;103209.22;5099187;28;20085;-65
2021/10/06 23:54:16;;;;;;;5.40;4.13;;;;;;;9.17;57.76;103213.88;5113974;28;20093;-62
2021/10/06 23:56:42;;;;;;;4.97;3.90;;;;;;;9.15;57.46;103213.97;5108957;28;20064;-65
2021/10/06 23:59:07;;;;;;;4.93;4.10;;;;;;;8.98;57.35;103193.75;5093758;28;20032;-69
